Time;durP1;ratioP1;P1;durP2;ratioP2;P2;SDS_P1;SDS_P2;PMS_P1;PMS_P2;Temp;Humidity;BMP_temperature;BMP_pressure;BME280_temperature;BME280_humidity;BME280_pressure;Samples;Min_cycle;Max_cycle;Signal;HPM_P1;HPM_P2
2023/05/01 00:01:00;;;;;;;11.80;9.20;;;;;;;;;;5135388;27;20208;-76
2023/05/01 00:03:27;;;;;;;13.10;9.87;;;;;;;;;;5135060;27;20232;-76
2023/05/01 00:06:00;;;;;;;11.17;8.33;;;;;;;;;;5134991;27;20292;-76
2023/05/01 00:08:27;;;;;;;13.03;9.03;;;;;;;;;;5135438;27;20199;-76
2023/05/01 00:10:54;;;;;;;13.03;9.17;;;;;;;;;;5132363;27;20292;-76
2023/05/01 00:13:23;;;;;;;12.50;9.30;;;;;;;;;;5131393;27;20201;-76
2023/05/01 00:15:52;;;;;;;11.13;9.10;;;;;;;;;;5114408;28;20189;-76
2023/05/01 00:18:19;;;;;;;11.80;9.10;;;;;;;;;;5114400;28;20615;-76
2023/05/01 00:20:47;;;;;;;12.57;9.37;;;;;;;;;;5114879;28;20248;-76
2023/05/01 00:23:14;;;;;;;13.27;9.90;;;;;;;;;;5113603;28;20324;-76
2023/05/01 00:25:41;;;;;;;13.97;9.33;;;;;;;;;;5114113;28;20293;-76
2023/05/01 00:28:08;;;;;;;12.63;9.90;;;;;;;;;;5114648;27;20296;-76
2023/05/01 00:30:35;;;;;;;12.60;9.40;;;;;;;;;;5114212;28;20761;-76
2023/05/01 00:33:04;;;;;;;15.63;9.00;;;;;;;;;;5114158;28;20288;-76
2023/05/01 00:35:31;;;;;;;12.50;9.07;;;;;;;;;;5114530;28;20688;-76
2023/05/01 00:37:58;;;;;;;12.73;10.10;;;;;;;;;;5113834;28;20206;-77
2023/05/01 00:40:25;;;;;;;14.77;9.87;;;;;;;;;;5113298;28;20754;-77
2023/05/01 00:42:53;;;;;;;14.63;9.00;;;;;;;;;;5113740;28;20664;-77
2023/05/01 00:45:20;;;;;;;12.60;9.10;;;;;;;;;;5114493;28;20247;-76
2023/05/01 00:47:47;;;;;;;15.97;9.67;;;;;;;;;;5114103;28;20289;-76
2023/05/01 00:50:16;;;;;;;14.60;9.53;;;;;;;;;;5113166;28;20721;-76
2023/05/01 00:52:43;;;;;;;13.63;9.60;;;;;;;;;;5114252;28;20222;-76
2023/05/01 00:55:11;;;;;;;14.07;9.53;;;;;;;;;;5113503;28;20214;-76
2023/05/01 00:57:38;;;;;;;15.10;10.07;;;;;;;;;;5113774;28;20194;-76
2023/05/01 01:00:07;;;;;;;18.23;9.57;;;;;;;;;;5113372;28;20280;-75
2023/05/01 01:02:35;;;;;;;14.47;9.27;;;;;;;;;;5113602;28;20701;-76
2023/05/01 01:05:04;;;;;;;13.10;9.00;;;;;;;;;;5113668;28;20194;-76
2023/05/01 01:07:37;;;;;;;13.60;8.87;;;;;;;;;;5113313;28;20555;-76
2023/05/01 01:10:07;;;;;;;16.47;9.40;;;;;;;;;;5112667;28;20232;-76
2023/05/01 01:12:38;;;;;;;15.57;9.40;;;;;;;;;;5113524;28;20198;-76
2023/05/01 01:15:09;;;;;;;16.93;9.70;;;;;;;;;;5113185;28;20226;-76
2023/05/01 01:17:43;;;;;;;13.70;9.27;;;;;;;;;;5113453;28;20197;-76
2023/05/01 01:20:23;;;;;;;14.80;8.73;;;;;;;;;;5113222;28;20297;-76
2023/05/01 01:22:54;;;;;;;12.73;8.37;;;;;;;;;;5112552;28;20753;-76
2023/05/01 01:25:30;;;;;;;11.53;7.27;;;;;;;;;;5113264;28;20584;-76
2023/05/01 01:28:11;;;;;;;10.03;7.00;;;;;;;;;;5112997;28;20296;-75
2023/05/01 01:30:57;;;;;;;12.23;7.00;;;;;;;;;;5113387;28;20633;-76
2023/05/01 01:33:31;;;;;;;11.30;6.20;;;;;;;;;;5113041;28;20193;-76
2023/05/01 01:36:03;;;;;;;7.87;6.17;;;;;;;;;;5112823;28;20201;-76
2023/05/01 01:38:34;;;;;;;10.17;6.23;;;;;;;;;;5112744;28;20673;-76
2023/05/01 01:41:06;;;;;;;12.93;6.70;;;;;;;;;;5113192;28;20194;-76
2023/05/01 01:43:36;;;;;;;11.07;6.20;;;;;;;;;;5112674;28;20276;-77
2023/05/01 01:46:05;;;;;;;11.67;6.13;;;;;;;;;;5112849;28;20235;-76
2023/05/01 01:48:34;;;;;;;9.90;5.90;;;;;;;;;;5112643;28;20233;-75
2023/05/01 01:51:05;;;;;;;9.33;5.77;;;;;;;;;;5112939;28;20213;-76
2023/05/01 01:53:33;;;;;;;11.93;6.20;;;;;;;;;;5112244;28;20666;-76
2023/05/01 01:56:03;;;;;;;12.63;6.10;;;;;;;;;;5112753;28;20220;-75
2023/05/01 01:58:30;;;;;;;10.10;6.70;;;;;;;;;;5113302;28;20197;-76
2023/05/01 02:00:58;;;;;;;9.10;6.20;;;;;;;;;;5112203;28;20289;-75
2023/05/01 02:03:26;;;;;;;11.87;6.40;;;;;;;;;;5112562;28;20320;-77
2023/05/01 02:05:55;;;;;;;8.83;5.90;;;;;;;;;;5112227;28;20573;-76
2023/05/01 02:08:24;;;;;;;11.30;5.67;;;;;;;;;;5112204;28;20193;-76
2023/05/01 02:10:51;;;;;;;6.87;4.23;;;;;;;;;;5112194;28;20565;-76
2023/05/01 02:13:19;;;;;;;6.90;3.90;;;;;;;;;;5111989;28;20375;-76
2023/05/01 02:15:47;;;;;;;7.90;3.50;;;;;;;;;;5112259;28;20221;-77
2023/05/01 02:18:15;;;;;;;8.10;4.30;;;;;;;;;;5112169;28;20669;-76
2023/05/01 02:20:43;;;;;;;5.87;3.60;;;;;;;;;;5111714;28;20289;-76
2023/05/01 02:23:10;;;;;;;8.47;3.87;;;;;;;;;;5111244;28;20230;-76
2023/05/01 02:25:40;;;;;;;7.90;4.20;;;;;;;;;;5098651;28;20293;-76
2023/05/01 02:28:09;;;;;;;9.37;4.50;;;;;;;;;;5112186;28;20289;-75
2023/05/01 02:30:36;;;;;;;8.30;4.33;;;;;;;;;;5111433;28;20633;-76
2023/05/01 02:33:04;;;;;;;8.37;4.37;;;;;;;;;;5112412;28;20222;-76
2023/05/01 02:35:31;;;;;;;8.27;4.40;;;;;;;;;;5110989;28;20201;-76
2023/05/01 02:37:58;;;;;;;9.87;4.57;;;;;;;;;;5112196;28;20288;-76
2023/05/01 02:40:26;;;;;;;8.83;4.57;;;;;;;;;;5111793;28;20280;-76
2023/05/01 02:42:55;;;;;;;10.40;4.70;;;;;;;;;;5111620;28;20741;-76
2023/05/01 02:45:24;;;;;;;8.90;4.93;;;;;;;;;;5111736;28;20202;-75
2023/05/01 02:47:52;;;;;;;7.80;3.93;;;;;;;;;;5111917;28;20402;-76
2023/05/01 02:50:20;;;;;;;6.13;3.40;;;;;;;;;;5111605;28;20190;-76
2023/05/01 02:52:48;;;;;;;9.10;3.80;;;;;;;;;;5111795;28;20194;-76
2023/05/01 02:55:15;;;;;;;7.43;3.50;;;;;;;;;;5111896;28;20280;-76
2023/05/01 02:57:42;;;;;;;8.50;3.37;;;;;;;;;;5111758;28;20233;-77
2023/05/01 03:00:12;;;;;;;5.93;3.50;;;;;;;;;;5111791;28;20296;-76
2023/05/01 03:02:40;;;;;;;7.70;3.20;;;;;;;;;;5111608;28;20181;-76
2023/05/01 03:05:07;;;;;;;8.70;3.13;;;;;;;;;;5110869;28;20233;-76
2023/05/01 03:07:35;;;;;;;6.37;3.27;;;;;;;;;;5111704;28;20685;-76
2023/05/01 03:10:03;;;;;;;7.60;3.67;;;;;;;;;;5111487;28;20206;-76
2023/05/01 03:12:30;;;;;;;6.33;3.47;;;;;;;;;;5111827;28;20225;-76
2023/05/01 03:14:57;;;;;;;5.17;3.10;;;;;;;;;;5111722;28;20233;-76
2023/05/01 03:17:26;;;;;;;5.43;3.17;;;;;;;;;;5111582;28;20276;-76
2023/05/01 03:19:53;;;;;;;5.23;3.23;;;;;;;;;;5111289;28;20218;-76
2023/05/01 03:22:20;;;;;;;6.60;2.90;;;;;;;;;;5111908;28;20194;-75
2023/05/01 03:24:48;;;;;;;6.97;3.03;;;;;;;;;;5111660;28;20320;-76
2023/05/01 03:27:16;;;;;;;5.63;3.00;;;;;;;;;;5111499;28;20247;-76
2023/05/01 03:29:43;;;;;;;6.10;3.07;;;;;;;;;;5111479;28;20288;-76
2023/05/01 03:32:10;;;;;;;4.27;2.93;;;;;;;;;;5111399;28;20237;-77
2023/05/01 03:34:39;;;;;;;4.97;2.97;;;;;;;;;;5110727;28;20284;-76
2023/05/01 03:37:06;;;;;;;6.60;3.10;;;;;;;;;;5111195;28;20237;-76
2023/05/01 03:39:33;;;;;;;7.20;3.07;;;;;;;;;;5111179;28;20221;-76
2023/05/01 03:42:01;;;;;;;6.13;3.33;;;;;;;;;;5111424;28;20606;-76
2023/05/01 03:44:28;;;;;;;6.53;3.23;;;;;;;;;;5111067;28;20233;-76
2023/05/01 03:46:55;;;;;;;6.93;3.80;;;;;;;;;;5114863;28;20236;-77
2023/05/01 03:49:22;;;;;;;3.90;3.30;;;;;;;;;;5114937;28;20293;-76
2023/05/01 03:51:51;;;;;;;6.07;3.13;;;;;;;;;;5115104;28;20206;-76
2023/05/01 03:54:18;;;;;;;5.80;3.60;;;;;;;;;;5115045;28;20221;-76
2023/05/01 03:56:45;;;;;;;8.47;3.73;;;;;;;;;;5115090;28;20281;-76
2023/05/01 03:59:13;;;;;;;6.50;3.80;;;;;;;;;;5114715;28;20821;-76
2023/05/01 04:01:40;;;;;;;6.10;3.83;;;;;;;;;;5114708;28;20224;-76
2023/05/01 04:04:07;;;;;;;5.80;4.00;;;;;;;;;;5114405;28;20588;-75
2023/05/01 04:06:35;;;;;;;6.17;3.90;;;;;;;;;;5114966;28;20190;-76
2023/05/01 04:09:04;;;;;;;7.47;3.70;;;;;;;;;;5114502;28;20268;-77
2023/05/01 04:11:31;;;;;;;5.87;3.50;;;;;;;;;;5114603;28;20239;-77
2023/05/01 04:13:58;;;;;;;7.83;4.10;;;;;;;;;;5114573;28;20226;-76
2023/05/01 04:16:26;;;;;;;9.87;3.90;;;;;;;;;;5114487;28;20229;-76
2023/05/01 04:18:53;;;;;;;6.13;3.40;;;;;;;;;;5114289;28;20207;-76
2023/05/01 04:21:20;;;;;;;7.63;3.47;;;;;;;;;;5114554;28;20194;-76
2023/05/01 04:23:47;;;;;;;6.43;3.27;;;;;;;;;;5114615;28;20214;-76
2023/05/01 04:26:16;;;;;;;6.93;3.73;;;;;;;;;;5114837;28;20883;-75
2023/05/01 04:28:43;;;;;;;6.23;3.37;;;;;;;;;;5114362;28;20189;-76
2023/05/01 04:31:11;;;;;;;5.87;3.60;;;;;;;;;;5114094;28;20280;-75
2023/05/01 04:33:38;;;;;;;7.67;3.30;;;;;;;;;;5114609;28;20280;-76
2023/05/01 04:36:06;;;;;;;6.23;3.30;;;;;;;;;;5113940;28;20190;-75
2023/05/01 04:38:35;;;;;;;7.40;3.33;;;;;;;;;;5114659;28;20285;-76
2023/05/01 04:41:03;;;;;;;6.83;3.47;;;;;;;;;;5114194;28;20239;-76
2023/05/01 04:43:31;;;;;;;7.43;3.83;;;;;;;;;;5113989;28;20320;-76
2023/05/01 04:45:58;;;;;;;7.93;3.67;;;;;;;;;;5113379;28;20670;-76
2023/05/01 04:48:26;;;;;;;7.33;3.27;;;;;;;;;;5114327;28;20200;-76
2023/05/01 04:50:54;;;;;;;7.47;3.63;;;;;;;;;;5114398;28;20204;-76
2023/05/01 04:53:21;;;;;;;7.30;3.73;;;;;;;;;;5113621;28;20658;-75
2023/05/01 04:55:48;;;;;;;9.27;3.83;;;;;;;;;;5114059;28;20289;-75
2023/05/01 04:58:15;;;;;;;8.97;4.50;;;;;;;;;;5113359;28;20285;-76
2023/05/01 05:00:44;;;;;;;7.60;3.70;;;;;;;;;;5113603;28;20559;-76
2023/05/01 05:03:11;;;;;;;7.60;4.20;;;;;;;;;;5113904;28;20281;-76
2023/05/01 05:05:38;;;;;;;7.80;4.27;;;;;;;;;;5113573;28;20276;-76
2023/05/01 05:08:06;;;;;;;8.70;4.50;;;;;;;;;;5113870;28;20217;-77
2023/05/01 05:10:33;;;;;;;8.90;4.87;;;;;;;;;;5113644;28;20390;-77
2023/05/01 05:13:00;;;;;;;8.93;4.30;;;;;;;;;;5113226;28;20634;-76
2023/05/01 05:15:27;;;;;;;9.43;4.70;;;;;;;;;;5113374;28;20299;-75
2023/05/01 05:17:56;;;;;;;8.73;4.53;;;;;;;;;;5113076;28;20285;-76
2023/05/01 05:20:23;;;;;;;9.27;4.40;;;;;;;;;;5113299;28;20229;-77
2023/05/01 05:22:51;;;;;;;11.30;4.77;;;;;;;;;;5113530;28;20280;-76
2023/05/01 05:25:18;;;;;;;8.33;4.60;;;;;;;;;;5113251;28;20575;-76
2023/05/01 05:27:45;;;;;;;9.27;4.00;;;;;;;;;;5113382;28;20284;-76
2023/05/01 05:30:13;;;;;;;7.87;4.20;;;;;;;;;;5112186;28;20288;-76
2023/05/01 05:32:40;;;;;;;8.47;4.03;;;;;;;;;;5113017;28;20658;-77
2023/05/01 05:35:09;;;;;;;7.23;4.30;;;;;;;;;;5113044;28;20221;-76
2023/05/01 05:37:36;;;;;;;8.83;4.00;;;;;;;;;;5113206;28;20293;-76
2023/05/01 05:40:03;;;;;;;7.33;4.20;;;;;;;;;;5113270;28;20283;-75
2023/05/01 05:42:30;;;;;;;6.73;3.80;;;;;;;;;;5112913;28;20226;-76
2023/05/01 05:44:57;;;;;;;7.77;4.13;;;;;;;;;;5112513;28;20274;-75
2023/05/01 05:47:24;;;;;;;8.67;4.30;;;;;;;;;;5113162;28;20285;-76
2023/05/01 05:49:52;;;;;;;8.23;4.37;;;;;;;;;;5113017;28;20221;-76
2023/05/01 05:52:20;;;;;;;7.73;3.43;;;;;;;;;;5113039;28;20194;-76
2023/05/01 05:54:47;;;;;;;7.20;3.40;;;;;;;;;;5112790;28;20646;-76
2023/05/01 05:57:14;;;;;;;8.57;3.67;;;;;;;;;;5112815;28;20292;-76
2023/05/01 05:59:43;;;;;;;7.23;3.80;;;;;;;;;;5112585;28;20284;-76
2023/05/01 06:02:10;;;;;;;6.70;3.90;;;;;;;;;;5112184;28;20205;-76
2023/05/01 06:04:37;;;;;;;6.57;3.47;;;;;;;;;;5112721;28;20229;-76
2023/05/01 06:07:05;;;;;;;7.57;4.00;;;;;;;;;;5112607;28;20412;-75
2023/05/01 06:09:33;;;;;;;7.33;3.80;;;;;;;;;;5111663;28;20193;-76
2023/05/01 06:12:00;;;;;;;10.83;4.60;;;;;;;;;;5112856;28;20284;-76
2023/05/01 06:14:28;;;;;;;7.60;4.40;;;;;;;;;;5111658;28;20198;-76
2023/05/01 06:16:55;;;;;;;8.27;4.47;;;;;;;;;;5112133;28;20738;-76
2023/05/01 06:19:22;;;;;;;9.87;4.83;;;;;;;;;;5112291;28;20190;-76
2023/05/01 06:21:49;;;;;;;10.57;4.60;;;;;;;;;;5112190;28;20219;-76
2023/05/01 06:24:16;;;;;;;11.00;4.20;;;;;;;;;;5112147;28;20256;-76
2023/05/01 06:26:45;;;;;;;7.07;3.70;;;;;;;;;;5112376;28;20614;-76
2023/05/01 06:29:12;;;;;;;8.13;3.57;;;;;;;;;;5111832;28;20284;-76
2023/05/01 06:31:39;;;;;;;7.03;3.63;;;;;;;;;;5112277;28;20284;-76
2023/05/01 06:34:06;;;;;;;7.47;3.77;;;;;;;;;;5112369;28;20202;-76
2023/05/01 06:36:34;;;;;;;7.33;3.77;;;;;;;;;;5112145;28;20198;-76
2023/05/01 06:39:01;;;;;;;8.17;3.40;;;;;;;;;;5111655;28;20243;-76
2023/05/01 06:41:28;;;;;;;10.03;3.47;;;;;;;;;;5111952;28;20236;-76
2023/05/01 06:43:57;;;;;;;8.87;3.07;;;;;;;;;;5111199;28;20233;-76
2023/05/01 06:46:24;;;;;;;7.37;3.30;;;;;;;;;;5111893;28;20816;-76
2023/05/01 06:48:51;;;;;;;7.57;3.20;;;;;;;;;;5111498;28;20288;-77
2023/05/01 06:51:18;;;;;;;11.77;4.07;;;;;;;;;;5111494;28;20741;-76
2023/05/01 06:53:46;;;;;;;8.87;2.87;;;;;;;;;;5111818;28;20765;-75
2023/05/01 06:56:13;;;;;;;6.43;2.80;;;;;;;;;;5111485;28;20194;-76
2023/05/01 06:58:40;;;;;;;7.37;2.60;;;;;;;;;;5111763;28;20709;-76
2023/05/01 07:01:09;;;;;;;4.93;2.30;;;;;;;;;;5112010;28;20756;-76
2023/05/01 07:03:36;;;;;;;6.53;2.77;;;;;;;;;;5111806;28;20658;-76
2023/05/01 07:06:03;;;;;;;6.87;2.53;;;;;;;;;;5111364;28;20312;-76
2023/05/01 07:08:30;;;;;;;6.03;3.20;;;;;;;;;;5111398;28;20280;-76
2023/05/01 07:10:57;;;;;;;7.33;2.80;;;;;;;;;;5111252;28;20269;-76
2023/05/01 07:13:25;;;;;;;5.87;2.60;;;;;;;;;;5111649;28;20288;-76
2023/05/01 07:15:52;;;;;;;6.17;2.77;;;;;;;;;;5111521;28;20197;-76
2023/05/01 07:18:21;;;;;;;7.87;2.70;;;;;;;;;;5111461;28;20194;-76
2023/05/01 07:20:49;;;;;;;6.83;2.67;;;;;;;;;;5113474;28;20313;-76
2023/05/01 07:23:16;;;;;;;8.07;3.13;;;;;;;;;;5115592;28;20680;-76
2023/05/01 07:25:44;;;;;;;8.93;2.90;;;;;;;;;;5114900;28;20264;-75
2023/05/01 07:28:12;;;;;;;7.33;3.07;;;;;;;;;;5115459;28;20201;-75
2023/05/01 07:30:39;;;;;;;7.53;2.83;;;;;;;;;;5115307;28;20190;-75
2023/05/01 07:33:06;;;;;;;7.70;2.40;;;;;;;;;;5115639;27;20810;-75
2023/05/01 07:35:34;;;;;;;7.83;3.10;;;;;;;;;;5115483;28;20284;-74
2023/05/01 07:38:02;;;;;;;8.10;2.77;;;;;;;;;;5115839;28;20229;-74
2023/05/01 07:40:29;;;;;;;8.27;2.47;;;;;;;;;;5114794;28;20778;-75
2023/05/01 07:42:56;;;;;;;6.50;2.40;;;;;;;;;;5114947;28;20996;-75
2023/05/01 07:45:23;;;;;;;8.03;2.60;;;;;;;;;;5114915;28;20239;-74
2023/05/01 07:47:51;;;;;;;8.17;2.40;;;;;;;;;;5115158;28;20198;-74
2023/05/01 07:50:18;;;;;;;7.30;2.37;;;;;;;;;;5115162;28;20216;-75
2023/05/01 07:52:46;;;;;;;5.65;2.40;;;;;;;;;;5114980;28;20221;-76
2023/05/01 07:55:14;;;;;;;4.65;2.40;;;;;;;;;;5114430;28;20201;-75
2023/05/01 07:57:41;;;;;;;7.40;2.22;;;;;;;;;;5115364;28;20213;-75
2023/05/01 08:00:09;;;;;;;6.18;2.15;;;;;;;;;;5114810;28;20288;-74
2023/05/01 08:02:36;;;;;;;4.88;1.83;;;;;;;;;;5115075;28;20194;-76
2023/05/01 08:05:03;;;;;;;5.22;2.03;;;;;;;;;;5114948;28;20236;-75
2023/05/01 08:07:30;;;;;;;7.63;1.98;;;;;;;;;;5114658;28;20288;-75
2023/05/01 08:09:59;;;;;;;6.60;2.38;;;;;;;;;;5114296;28;20197;-74
2023/05/01 08:12:26;;;;;;;7.05;2.15;;;;;;;;;;5114547;28;20587;-75
2023/05/01 08:14:53;;;;;;;8.00;2.08;;;;;;;;;;5114809;28;20225;-75
2023/05/01 08:17:21;;;;;;;6.35;2.00;;;;;;;;;;5115075;28;20276;-74
2023/05/01 08:19:48;;;;;;;9.05;2.30;;;;;;;;;;5114680;28;20285;-75
2023/05/01 08:22:15;;;;;;;9.50;2.42;;;;;;;;;;5114649;28;20218;-75
2023/05/01 08:24:42;;;;;;;6.35;2.45;;;;;;;;;;5114016;28;20198;-74
2023/05/01 08:27:11;;;;;;;7.47;2.28;;;;;;;;;;5114477;28;20296;-74
2023/05/01 08:29:38;;;;;;;8.20;3.05;;;;;;;;;;5114643;28;20198;-75
2023/05/01 08:32:05;;;;;;;6.68;1.98;;;;;;;;;;5112701;28;20281;-74
2023/05/01 08:34:32;;;;;;;4.53;2.10;;;;;;;;;;5114157;28;20225;-74
2023/05/01 08:37:00;;;;;;;6.93;2.10;;;;;;;;;;5113726;28;20908;-75
2023/05/01 08:39:27;;;;;;;8.85;2.25;;;;;;;;;;5113775;28;20695;-74
2023/05/01 08:41:54;;;;;;;5.97;2.30;;;;;;;;;;5113896;28;20240;-75
2023/05/01 08:44:24;;;;;;;5.43;2.20;;;;;;;;;;5113868;28;20749;-75
2023/05/01 08:46:59;;;;;;;8.80;2.25;;;;;;;;;;5113539;28;20719;-75
2023/05/01 08:49:27;;;;;;;6.13;2.00;;;;;;;;;;5114083;28;20280;-76
2023/05/01 08:51:55;;;;;;;4.18;1.85;;;;;;;;;;5113586;28;20277;-75
2023/05/01 08:54:23;;;;;;;6.72;2.15;;;;;;;;;;5111576;27;20194;-75
2023/05/01 08:56:52;;;;;;;7.03;2.30;;;;;;;;;;5103915;28;20264;-75
2023/05/01 08:59:19;;;;;;;5.55;2.03;;;;;;;;;;5109027;27;20748;-74
2023/05/01 09:01:48;;;;;;;4.82;2.17;;;;;;;;;;5094813;28;20305;-76
2023/05/01 09:04:16;;;;;;;4.82;1.90;;;;;;;;;;5108465;27;20277;-75
2023/05/01 09:06:44;;;;;;;4.85;1.98;;;;;;;;;;5111314;28;20225;-76
2023/05/01 09:09:11;;;;;;;6.20;2.10;;;;;;;;;;5111690;27;20202;-75
2023/05/01 09:11:39;;;;;;;7.32;2.20;;;;;;;;;;5109030;27;20297;-75
2023/05/01 09:14:07;;;;;;;6.00;2.00;;;;;;;;;;5113630;28;20194;-77
2023/05/01 09:16:34;;;;;;;5.85;2.25;;;;;;;;;;5113643;28;20198;-76
2023/05/01 09:19:03;;;;;;;4.00;2.03;;;;;;;;;;5113355;28;20198;-76
2023/05/01 09:21:31;;;;;;;4.40;2.28;;;;;;;;;;5113001;27;20673;-76
2023/05/01 09:23:58;;;;;;;5.07;2.20;;;;;;;;;;5109339;28;20723;-75
2023/05/01 09:26:26;;;;;;;5.82;2.00;;;;;;;;;;5113290;28;20291;-76
2023/05/01 09:28:56;;;;;;;5.15;2.15;;;;;;;;;;5106648;28;20583;-76
2023/05/01 09:31:27;;;;;;;5.40;1.75;;;;;;;;;;5108534;28;20229;-76
2023/05/01 09:33:55;;;;;;;6.00;2.22;;;;;;;;;;5111162;27;20189;-77
2023/05/01 09:36:24;;;;;;;4.63;1.88;;;;;;;;;;5112946;28;20201;-76
2023/05/01 09:38:51;;;;;;;4.43;1.90;;;;;;;;;;5111760;28;20194;-75
2023/05/01 09:41:21;;;;;;;5.53;1.90;;;;;;;;;;5111809;28;20285;-76
2023/05/01 09:43:51;;;;;;;5.57;1.70;;;;;;;;;;5107188;28;20360;-74
2023/05/01 09:46:19;;;;;;;4.88;2.00;;;;;;;;;;5099048;28;20226;-77
2023/05/01 09:48:58;;;;;;;4.32;1.67;;;;;;;;;;5093754;28;20240;-75
2023/05/01 09:51:28;;;;;;;6.00;1.70;;;;;;;;;;5097288;28;20198;-76
2023/05/01 09:53:56;;;;;;;5.68;1.90;;;;;;;;;;5092022;28;20703;-75
2023/05/01 09:56:24;;;;;;;4.47;1.85;;;;;;;;;;5089853;28;20201;-75
2023/05/01 09:58:52;;;;;;;3.80;1.80;;;;;;;;;;5093120;28;20285;-75
2023/05/01 10:01:19;;;;;;;6.13;2.35;;;;;;;;;;5090680;28;20198;-75
2023/05/01 10:03:54;;;;;;;5.32;1.77;;;;;;;;;;5090933;28;20797;-77
2023/05/01 10:06:29;;;;;;;4.78;1.90;;;;;;;;;;5092222;28;20224;-76
2023/05/01 10:08:56;;;;;;;7.68;2.05;;;;;;;;;;5093686;28;20198;-75
2023/05/01 10:11:25;;;;;;;6.85;2.20;;;;;;;;;;5093738;28;20296;-75
2023/05/01 10:14:08;;;;;;;4.63;2.03;;;;;;;;;;5093072;28;20194;-77
2023/05/01 10:16:36;;;;;;;5.35;2.25;;;;;;;;;;5093033;28;20742;-76
2023/05/01 10:19:04;;;;;;;3.65;1.90;;;;;;;;;;5093263;28;20708;-77
2023/05/01 10:21:33;;;;;;;6.30;1.95;;;;;;;;;;5093305;28;20226;-76
2023/05/01 10:24:02;;;;;;;5.30;1.80;;;;;;;;;;5098927;28;20198;-75
2023/05/01 10:26:29;;;;;;;4.05;1.83;;;;;;;;;;5103309;28;20218;-76
2023/05/01 10:28:58;;;;;;;4.07;1.77;;;;;;;;;;5104560;28;20222;-76
2023/05/01 10:31:27;;;;;;;3.95;1.58;;;;;;;;;;5111853;28;20220;-76
2023/05/01 10:33:55;;;;;;;3.38;1.52;;;;;;;;;;5111573;28;20190;-77
2023/05/01 10:36:27;;;;;;;5.72;1.75;;;;;;;;;;5111610;28;20844;-76
2023/05/01 10:38:55;;;;;;;3.72;1.38;;;;;;;;;;5105243;28;20198;-76
2023/05/01 10:41:47;;;;;;;4.60;1.70;;;;;;;;;;5100661;28;20197;-76
2023/05/01 10:44:20;;;;;;;5.35;1.90;;;;;;;;;;5063048;28;20203;-75
2023/05/01 10:46:48;;;;;;;4.22;1.40;;;;;;;;;;5070732;28;20231;-76
2023/05/01 10:49:15;;;;;;;4.72;1.90;;;;;;;;;;5053702;28;20241;-76
2023/05/01 10:51:57;;;;;;;4.20;1.73;;;;;;;;;;5053011;28;20231;-75
2023/05/01 10:54:30;;;;;;;4.10;1.50;;;;;;;;;;5067427;28;20218;-76
2023/05/01 10:56:58;;;;;;;4.07;1.75;;;;;;;;;;5065149;28;20199;-76
2023/05/01 10:59:26;;;;;;;5.55;1.77;;;;;;;;;;5053494;28;20203;-75
2023/05/01 11:01:53;;;;;;;4.25;1.73;;;;;;;;;;5050918;28;20294;-76
2023/05/01 11:04:39;;;;;;;3.92;1.65;;;;;;;;;;5065687;28;20298;-76
2023/05/01 11:07:14;;;;;;;4.50;1.67;;;;;;;;;;5062072;28;20230;-75
2023/05/01 11:09:43;;;;;;;4.97;1.75;;;;;;;;;;5071540;28;20260;-77
2023/05/01 11:12:11;;;;;;;4.45;1.77;;;;;;;;;;5070102;28;20309;-76
2023/05/01 11:15:01;;;;;;;5.50;1.70;;;;;;;;;;5067680;28;20234;-76
2023/05/01 11:17:43;;;;;;;7.07;1.75;;;;;;;;;;5070832;28;20268;-76
2023/05/01 11:20:11;;;;;;;4.05;1.50;;;;;;;;;;5071017;28;20195;-77
2023/05/01 11:22:39;;;;;;;4.70;1.80;;;;;;;;;;5071611;28;20290;-77
2023/05/01 11:25:19;;;;;;;4.03;1.60;;;;;;;;;;5069292;28;20676;-77
2023/05/01 11:27:48;;;;;;;5.05;1.85;;;;;;;;;;5071117;28;20300;-77
2023/05/01 11:30:15;;;;;;;5.38;2.10;;;;;;;;;;5071025;28;20195;-77
2023/05/01 11:32:44;;;;;;;4.35;1.75;;;;;;;;;;5070336;28;20202;-77
2023/05/01 11:35:17;;;;;;;4.50;2.60;;;;;;;;;;5068595;28;20245;-77
2023/05/01 11:37:44;;;;;;;6.85;1.70;;;;;;;;;;5070430;28;20237;-77
2023/05/01 11:40:22;;;;;;;2.72;1.20;;;;;;;;;;5068347;28;20196;-78
2023/05/01 11:42:50;;;;;;;4.97;1.65;;;;;;;;;;5091749;28;20225;-76
2023/05/01 11:45:17;;;;;;;4.03;1.33;;;;;;;;;;5110326;28;20201;-76
2023/05/01 11:47:45;;;;;;;4.72;1.40;;;;;;;;;;5090471;28;20295;-77
2023/05/01 11:50:12;;;;;;;4.65;1.50;;;;;;;;;;5090595;28;20292;-76
2023/05/01 11:52:43;;;;;;;3.33;1.30;;;;;;;;;;5102778;28;20215;-77
2023/05/01 11:55:10;;;;;;;3.30;1.33;;;;;;;;;;5111404;28;20215;-77
2023/05/01 11:57:49;;;;;;;3.47;1.38;;;;;;;;;;5107868;28;20241;-77
2023/05/01 12:00:17;;;;;;;3.55;1.33;;;;;;;;;;5101313;28;20300;-76
2023/05/01 12:02:58;;;;;;;2.65;1.05;;;;;;;;;;5107014;28;20202;-76
2023/05/01 12:05:25;;;;;;;3.42;1.23;;;;;;;;;;5100443;28;20277;-75
2023/05/01 12:07:53;;;;;;;3.15;1.23;;;;;;;;;;5110655;28;20245;-77
2023/05/01 12:10:20;;;;;;;2.92;1.27;;;;;;;;;;5124495;27;20201;-77
2023/05/01 12:12:49;;;;;;;3.58;1.20;;;;;;;;;;5111975;28;20217;-77
2023/05/01 12:15:16;;;;;;;4.13;1.48;;;;;;;;;;5107461;28;20271;-77
2023/05/01 12:17:45;;;;;;;3.85;1.13;;;;;;;;;;5108522;28;20574;-78
2023/05/01 12:20:13;;;;;;;2.65;1.23;;;;;;;;;;5113362;28;20202;-77
2023/05/01 12:22:50;;;;;;;5.03;1.40;;;;;;;;;;5112613;27;20198;-77
2023/05/01 12:25:18;;;;;;;6.57;1.30;;;;;;;;;;5101462;28;20197;-77
2023/05/01 12:27:46;;;;;;;4.70;1.30;;;;;;;;;;5106994;28;20459;-75
2023/05/01 12:30:25;;;;;;;4.40;1.30;;;;;;;;;;5106283;28;20267;-75
2023/05/01 12:32:52;;;;;;;3.28;1.27;;;;;;;;;;5111312;28;20193;-76
2023/05/01 12:35:20;;;;;;;4.97;1.48;;;;;;;;;;5113518;28;20248;-76
2023/05/01 12:37:47;;;;;;;4.25;1.40;;;;;;;;;;5113368;28;20229;-76
2023/05/01 12:40:14;;;;;;;4.28;1.20;;;;;;;;;;5121242;27;20204;-76
2023/05/01 12:42:42;;;;;;;3.17;1.20;;;;;;;;;;5113676;28;20225;-76
2023/05/01 12:45:11;;;;;;;3.25;1.27;;;;;;;;;;5112129;28;20273;-76
2023/05/01 12:47:39;;;;;;;3.33;1.15;;;;;;;;;;5111757;28;20225;-76
2023/05/01 12:50:07;;;;;;;5.22;1.27;;;;;;;;;;5113140;28;20239;-76
2023/05/01 12:52:34;;;;;;;6.35;1.60;;;;;;;;;;5113387;28;20281;-75
2023/05/01 12:55:07;;;;;;;6.10;1.63;;;;;;;;;;5113649;28;20276;-76
2023/05/01 12:57:35;;;;;;;7.22;1.85;;;;;;;;;;5119183;27;20288;-76
2023/05/01 13:00:04;;;;;;;2.83;1.10;;;;;;;;;;5115714;28;20197;-75
2023/05/01 13:02:32;;;;;;;42.47;3.55;;;;;;;;;;5116282;28;20189;-75
2023/05/01 13:05:08;;;;;;;6.97;1.75;;;;;;;;;;5115129;28;20236;-79
2023/05/01 13:07:36;;;;;;;36.08;3.92;;;;;;;;;;5115339;28;20275;-76
2023/05/01 13:10:05;;;;;;;4.30;1.50;;;;;;;;;;5112087;28;20194;-76
2023/05/01 13:12:32;;;;;;;4.95;1.20;;;;;;;;;;5111032;28;20288;-76
2023/05/01 13:15:00;;;;;;;5.57;1.40;;;;;;;;;;5110730;27;20633;-75
2023/05/01 13:17:27;;;;;;;3.90;1.38;;;;;;;;;;5114111;28;20276;-74
2023/05/01 13:19:55;;;;;;;4.13;1.35;;;;;;;;;;5113142;28;20196;-75
2023/05/01 13:22:30;;;;;;;3.70;1.10;;;;;;;;;;5115717;28;20235;-76
2023/05/01 13:24:57;;;;;;;5.32;1.45;;;;;;;;;;5110608;27;20233;-75
2023/05/01 13:27:26;;;;;;;3.72;1.50;;;;;;;;;;5110631;28;20285;-75
2023/05/01 13:29:56;;;;;;;4.72;1.50;;;;;;;;;;5116414;27;20622;-75
2023/05/01 13:32:24;;;;;;;3.78;1.40;;;;;;;;;;5114163;28;20797;-75
2023/05/01 13:34:52;;;;;;;4.55;1.85;;;;;;;;;;5115137;28;20205;-76
2023/05/01 13:37:21;;;;;;;4.95;1.77;;;;;;;;;;5114153;27;20204;-75
2023/05/01 13:39:49;;;;;;;6.57;1.70;;;;;;;;;;5114833;28;20202;-76
2023/05/01 13:42:23;;;;;;;4.60;1.85;;;;;;;;;;5110610;28;20664;-75
2023/05/01 13:44:52;;;;;;;5.80;2.00;;;;;;;;;;5112236;28;20193;-76
2023/05/01 13:47:19;;;;;;;4.80;1.80;;;;;;;;;;5113672;28;20261;-77
2023/05/01 13:49:47;;;;;;;4.75;1.85;;;;;;;;;;5104013;28;20286;-75
2023/05/01 13:52:16;;;;;;;3.15;1.70;;;;;;;;;;5095446;28;20202;-76
2023/05/01 13:54:43;;;;;;;6.18;1.88;;;;;;;;;;5095072;28;20209;-75
2023/05/01 13:57:12;;;;;;;4.07;1.83;;;;;;;;;;5094849;28;20288;-76
2023/05/01 13:59:40;;;;;;;5.22;1.55;;;;;;;;;;5106540;27;20197;-75
2023/05/01 14:02:20;;;;;;;5.05;1.50;;;;;;;;;;5107878;28;20229;-76
2023/05/01 14:04:47;;;;;;;4.50;1.52;;;;;;;;;;5107458;28;20190;-75
2023/05/01 14:07:17;;;;;;;5.60;1.70;;;;;;;;;;5102879;28;20312;-77
2023/05/01 14:09:45;;;;;;;5.68;1.50;;;;;;;;;;5109948;28;20284;-75
2023/05/01 14:12:14;;;;;;;3.90;1.67;;;;;;;;;;5110048;28;20202;-76
2023/05/01 14:14:46;;;;;;;5.65;1.95;;;;;;;;;;5111207;28;20194;-76
2023/05/01 14:17:13;;;;;;;6.40;1.83;;;;;;;;;;5110564;28;20208;-75
2023/05/01 14:19:40;;;;;;;4.78;1.85;;;;;;;;;;5110694;28;20233;-74
2023/05/01 14:22:08;;;;;;;3.63;1.85;;;;;;;;;;5110050;28;20198;-73
2023/05/01 14:24:36;;;;;;;3.97;2.05;;;;;;;;;;5110287;28;20656;-73
2023/05/01 14:27:04;;;;;;;5.50;1.90;;;;;;;;;;5104329;28;20231;-75
2023/05/01 14:29:33;;;;;;;6.32;2.10;;;;;;;;;;5099666;28;20289;-74
2023/05/01 14:32:04;;;;;;;5.82;1.63;;;;;;;;;;5110306;28;20208;-74
2023/05/01 14:34:32;;;;;;;5.95;2.05;;;;;;;;;;5101503;28;20276;-74
2023/05/01 14:36:59;;;;;;;6.55;1.90;;;;;;;;;;5106250;28;20212;-73
2023/05/01 14:39:26;;;;;;;4.95;1.98;;;;;;;;;;5105934;27;20239;-74
2023/05/01 14:41:58;;;;;;;4.90;2.03;;;;;;;;;;5106764;27;20618;-74
2023/05/01 14:44:27;;;;;;;6.65;2.10;;;;;;;;;;5106796;28;20300;-75
2023/05/01 14:46:57;;;;;;;5.97;1.90;;;;;;;;;;5109379;28;20201;-75
2023/05/01 14:49:25;;;;;;;5.95;2.20;;;;;;;;;;5109299;28;20186;-75